sensor_id;sensor_type;location;lat;lon;timestamp;temperature;humidity
59857;DHT22;45733;52.668;6.860;2023-02-28T00:00:49;3.50;99.90
59857;DHT22;45733;52.668;6.860;2023-02-28T00:03:15;3.50;99.90
59857;DHT22;45733;52.668;6.860;2023-02-28T00:05:41;3.50;99.90
59857;DHT22;45733;52.668;6.860;2023-02-28T00:08:07;3.50;99.90
59857;DHT22;45733;52.668;6.860;2023-02-28T00:10:33;3.50;99.90
59857;DHT22;45733;52.668;6.860;2023-02-28T00:13:02;3.50;99.90
59857;DHT22;45733;52.668;6.860;2023-02-28T00:15:28;3.60;99.90
59857;DHT22;45733;52.668;6.860;2023-02-28T00:17:54;3.60;99.90
59857;DHT22;45733;52.668;6.860;2023-02-28T00:20:20;3.50;99.90
59857;DHT22;45733;52.668;6.860;2023-02-28T00:22:49;3.60;99.90
59857;DHT22;45733;52.668;6.860;2023-02-28T00:25:20;3.50;99.90
59857;DHT22;45733;52.668;6.860;2023-02-28T00:27:46;3.60;99.90
59857;DHT22;45733;52.668;6.860;2023-02-28T00:30:15;3.50;99.90
59857;DHT22;45733;52.668;6.860;2023-02-28T00:32:41;3.50;99.90
59857;DHT22;45733;52.668;6.860;2023-02-28T00:35:08;3.60;99.90
59857;DHT22;45733;52.668;6.860;2023-02-28T00:37:34;3.50;99.90
59857;DHT22;45733;52.668;6.860;2023-02-28T00:40:00;3.50;99.90
59857;DHT22;45733;52.668;6.860;2023-02-28T00:42:26;3.60;99.90
59857;DHT22;45733;52.668;6.860;2023-02-28T00:44:52;3.60;99.90
59857;DHT22;45733;52.668;6.860;2023-02-28T00:47:18;3.60;99.90
59857;DHT22;45733;52.668;6.860;2023-02-28T00:49:44;3.60;99.90
59857;DHT22;45733;52.668;6.860;2023-02-28T00:52:09;3.50;99.90
59857;DHT22;45733;52.668;6.860;2023-02-28T00:54:35;3.60;99.90
59857;DHT22;45733;52.668;6.860;2023-02-28T00:57:01;3.60;99.90
59857;DHT22;45733;52.668;6.860;2023-02-28T00:59:26;3.60;99.90
59857;DHT22;45733;52.668;6.860;2023-02-28T01:01:52;3.70;99.90
59857;DHT22;45733;52.668;6.860;2023-02-28T01:04:18;3.60;99.90
59857;DHT22;45733;52.668;6.860;2023-02-28T01:06:43;3.70;99.90
59857;DHT22;45733;52.668;6.860;2023-02-28T01:09:09;3.60;99.90
59857;DHT22;45733;52.668;6.860;2023-02-28T01:11:35;3.60;99.90
59857;DHT22;45733;52.668;6.860;2023-02-28T01:14:01;3.60;99.90
59857;DHT22;45733;52.668;6.860;2023-02-28T01:16:28;3.60;99.90
59857;DHT22;45733;52.668;6.860;2023-02-28T01:18:54;3.60;99.90
59857;DHT22;45733;52.668;6.860;2023-02-28T01:21:21;3.60;99.90
59857;DHT22;45733;52.668;6.860;2023-02-28T01:23:47;3.60;99.90
59857;DHT22;45733;52.668;6.860;2023-02-28T01:26:15;3.60;99.90
59857;DHT22;45733;52.668;6.860;2023-02-28T01:28:42;3.60;99.90
59857;DHT22;45733;52.668;6.860;2023-02-28T01:31:09;3.50;99.90
59857;DHT22;45733;52.668;6.860;2023-02-28T01:33:35;3.50;99.90
59857;DHT22;45733;52.668;6.860;2023-02-28T01:36:26;3.50;99.90
59857;DHT22;45733;52.668;6.860;2023-02-28T01:38:54;3.50;99.90
59857;DHT22;45733;52.668;6.860;2023-02-28T01:41:24;3.60;99.90
59857;DHT22;45733;52.668;6.860;2023-02-28T01:46:16;3.60;99.90
59857;DHT22;45733;52.668;6.860;2023-02-28T01:49:01;3.50;99.90
59857;DHT22;45733;52.668;6.860;2023-02-28T01:51:38;3.50;99.90
59857;DHT22;45733;52.668;6.860;2023-02-28T01:54:12;3.50;99.90
59857;DHT22;45733;52.668;6.860;2023-02-28T01:56:41;3.60;99.90
59857;DHT22;45733;52.668;6.860;2023-02-28T01:59:09;3.40;99.90
59857;DHT22;45733;52.668;6.860;2023-02-28T02:01:35;3.50;99.90
59857;DHT22;45733;52.668;6.860;2023-02-28T02:04:02;3.60;99.90
59857;DHT22;45733;52.668;6.860;2023-02-28T02:06:34;3.40;99.90
59857;DHT22;45733;52.668;6.860;2023-02-28T02:09:01;3.50;99.90
59857;DHT22;45733;52.668;6.860;2023-02-28T02:11:27;3.40;99.90
59857;DHT22;45733;52.668;6.860;2023-02-28T02:20:03;3.50;99.90
59857;DHT22;45733;52.668;6.860;2023-02-28T02:26:10;3.50;99.90
59857;DHT22;45733;52.668;6.860;2023-02-28T02:31:03;3.50;99.90
59857;DHT22;45733;52.668;6.860;2023-02-28T02:36:38;3.30;99.90
59857;DHT22;45733;52.668;6.860;2023-02-28T02:39:14;3.40;99.90
59857;DHT22;45733;52.668;6.860;2023-02-28T02:41:52;3.40;99.90
59857;DHT22;45733;52.668;6.860;2023-02-28T02:44:24;3.40;99.90
59857;DHT22;45733;52.668;6.860;2023-02-28T02:46:55;3.40;99.90
59857;DHT22;45733;52.668;6.860;2023-02-28T02:49:31;3.50;99.90
59857;DHT22;45733;52.668;6.860;2023-02-28T02:52:03;3.50;99.90
59857;DHT22;45733;52.668;6.860;2023-02-28T02:54:33;3.50;99.90
59857;DHT22;45733;52.668;6.860;2023-02-28T02:57:04;3.50;99.90
59857;DHT22;45733;52.668;6.860;2023-02-28T02:59:31;3.50;99.90
59857;DHT22;45733;52.668;6.860;2023-02-28T03:02:00;3.50;99.90
59857;DHT22;45733;52.668;6.860;2023-02-28T03:04:30;3.50;99.90
59857;DHT22;45733;52.668;6.860;2023-02-28T03:06:58;3.50;99.90
59857;DHT22;45733;52.668;6.860;2023-02-28T03:09:25;3.40;99.90
59857;DHT22;45733;52.668;6.860;2023-02-28T03:11:54;3.50;99.90
59857;DHT22;45733;52.668;6.860;2023-02-28T03:22:19;3.40;99.90
59857;DHT22;45733;52.668;6.860;2023-02-28T03:30:27;3.40;99.90
59857;DHT22;45733;52.668;6.860;2023-02-28T03:33:10;3.30;99.90
59857;DHT22;45733;52.668;6.860;2023-02-28T03:35:59;3.30;99.90
59857;DHT22;45733;52.668;6.860;2023-02-28T03:38:35;3.30;99.90
59857;DHT22;45733;52.668;6.860;2023-02-28T03:41:17;3.30;99.90
59857;DHT22;45733;52.668;6.860;2023-02-28T03:43:53;3.40;99.90
59857;DHT22;45733;52.668;6.860;2023-02-28T03:46:23;3.40;99.90
59857;DHT22;45733;52.668;6.860;2023-02-28T03:49:15;3.30;99.90
59857;DHT22;45733;52.668;6.860;2023-02-28T03:51:42;3.30;99.90
59857;DHT22;45733;52.668;6.860;2023-02-28T03:54:50;3.40;99.90
59857;DHT22;45733;52.668;6.860;2023-02-28T03:57:33;3.50;99.90
59857;DHT22;45733;52.668;6.860;2023-02-28T04:00:08;3.50;99.90
59857;DHT22;45733;52.668;6.860;2023-02-28T04:02:35;3.40;99.90
59857;DHT22;45733;52.668;6.860;2023-02-28T04:05:01;3.30;99.90
59857;DHT22;45733;52.668;6.860;2023-02-28T04:07:30;3.40;99.90
59857;DHT22;45733;52.668;6.860;2023-02-28T04:09:56;3.40;99.90
59857;DHT22;45733;52.668;6.860;2023-02-28T04:12:22;3.40;99.90
59857;DHT22;45733;52.668;6.860;2023-02-28T04:14:49;3.30;99.90
59857;DHT22;45733;52.668;6.860;2023-02-28T04:17:15;3.30;99.90
59857;DHT22;45733;52.668;6.860;2023-02-28T04:19:41;3.20;99.90
59857;DHT22;45733;52.668;6.860;2023-02-28T04:22:08;3.20;99.90
59857;DHT22;45733;52.668;6.860;2023-02-28T04:24:34;3.30;99.90
59857;DHT22;45733;52.668;6.860;2023-02-28T04:27:00;3.30;99.90
59857;DHT22;45733;52.668;6.860;2023-02-28T04:29:28;3.40;99.90
59857;DHT22;45733;52.668;6.860;2023-02-28T04:31:55;3.30;99.90
59857;DHT22;45733;52.668;6.860;2023-02-28T04:34:25;3.30;99.90
59857;DHT22;45733;52.668;6.860;2023-02-28T04:36:53;3.20;99.90
59857;DHT22;45733;52.668;6.860;2023-02-28T04:39:21;3.20;99.90
59857;DHT22;45733;52.668;6.860;2023-02-28T04:41:47;3.30;99.90
59857;DHT22;45733;52.668;6.860;2023-02-28T04:44:16;3.30;99.90
59857;DHT22;45733;52.668;6.860;2023-02-28T04:46:43;3.30;99.90
59857;DHT22;45733;52.668;6.860;2023-02-28T04:49:11;3.20;99.90
59857;DHT22;45733;52.668;6.860;2023-02-28T04:51:37;3.20;99.90
59857;DHT22;45733;52.668;6.860;2023-02-28T04:54:02;3.30;99.90
59857;DHT22;45733;52.668;6.860;2023-02-28T04:56:28;3.20;99.90
59857;DHT22;45733;52.668;6.860;2023-02-28T04:58:54;3.30;99.90
59857;DHT22;45733;52.668;6.860;2023-02-28T05:01:28;3.40;99.90
59857;DHT22;45733;52.668;6.860;2023-02-28T05:03:57;3.40;99.90
59857;DHT22;45733;52.668;6.860;2023-02-28T05:06:26;3.40;99.90
59857;DHT22;45733;52.668;6.860;2023-02-28T05:08:52;3.40;99.90
59857;DHT22;45733;52.668;6.860;2023-02-28T05:13:50;3.40;99.90
59857;DHT22;45733;52.668;6.860;2023-02-28T05:16:16;3.30;99.90
59857;DHT22;45733;52.668;6.860;2023-02-28T05:18:42;3.40;99.90
59857;DHT22;45733;52.668;6.860;2023-02-28T05:23:53;3.30;99.90
59857;DHT22;45733;52.668;6.860;2023-02-28T05:26:19;3.30;99.90
59857;DHT22;45733;52.668;6.860;2023-02-28T05:28:45;3.20;99.90
59857;DHT22;45733;52.668;6.860;2023-02-28T05:31:11;3.30;99.90
59857;DHT22;45733;52.668;6.860;2023-02-28T05:33:37;3.20;99.90
59857;DHT22;45733;52.668;6.860;2023-02-28T05:36:03;3.10;99.90
59857;DHT22;45733;52.668;6.860;2023-02-28T05:38:29;3.10;99.90
59857;DHT22;45733;52.668;6.860;2023-02-28T05:40:55;3.10;99.90
59857;DHT22;45733;52.668;6.860;2023-02-28T05:43:22;3.20;99.90
59857;DHT22;45733;52.668;6.860;2023-02-28T05:45:47;3.10;99.90
59857;DHT22;45733;52.668;6.860;2023-02-28T05:48:13;3.20;99.90
59857;DHT22;45733;52.668;6.860;2023-02-28T05:50:39;3.10;99.90
59857;DHT22;45733;52.668;6.860;2023-02-28T05:53:05;3.00;99.90
59857;DHT22;45733;52.668;6.860;2023-02-28T05:55:30;3.10;99.90
59857;DHT22;45733;52.668;6.860;2023-02-28T05:57:56;3.00;99.90
59857;DHT22;45733;52.668;6.860;2023-02-28T06:00:22;3.00;99.90
59857;DHT22;45733;52.668;6.860;2023-02-28T06:02:48;3.10;99.90
59857;DHT22;45733;52.668;6.860;2023-02-28T06:05:16;3.00;99.90
59857;DHT22;45733;52.668;6.860;2023-02-28T06:07:43;3.00;99.90
59857;DHT22;45733;52.668;6.860;2023-02-28T06:10:10;3.00;99.90
59857;DHT22;45733;52.668;6.860;2023-02-28T06:12:37;3.20;99.90
59857;DHT22;45733;52.668;6.860;2023-02-28T06:15:03;3.10;99.90
59857;DHT22;45733;52.668;6.860;2023-02-28T06:17:29;3.20;99.90
59857;DHT22;45733;52.668;6.860;2023-02-28T06:19:55;3.20;99.90
59857;DHT22;45733;52.668;6.860;2023-02-28T06:22:21;3.10;99.90
59857;DHT22;45733;52.668;6.860;2023-02-28T06:24:46;3.10;99.90
59857;DHT22;45733;52.668;6.860;2023-02-28T06:27:12;3.10;99.90
59857;DHT22;45733;52.668;6.860;2023-02-28T06:29:38;3.10;99.90
59857;DHT22;45733;52.668;6.860;2023-02-28T06:32:05;3.10;99.90
59857;DHT22;45733;52.668;6.860;2023-02-28T06:34:31;3.10;99.90
59857;DHT22;45733;52.668;6.860;2023-02-28T06:36:59;3.20;99.90
59857;DHT22;45733;52.668;6.860;2023-02-28T06:39:28;3.10;99.90
59857;DHT22;45733;52.668;6.860;2023-02-28T06:41:54;3.10;99.90
59857;DHT22;45733;52.668;6.860;2023-02-28T06:44:20;3.20;99.90
59857;DHT22;45733;52.668;6.860;2023-02-28T06:46:46;3.20;99.90
59857;DHT22;45733;52.668;6.860;2023-02-28T06:49:12;3.10;99.90
59857;DHT22;45733;52.668;6.860;2023-02-28T06:51:40;3.20;99.90
59857;DHT22;45733;52.668;6.860;2023-02-28T06:54:07;3.20;99.90
59857;DHT22;45733;52.668;6.860;2023-02-28T06:56:35;3.20;99.90
59857;DHT22;45733;52.668;6.860;2023-02-28T06:59:01;3.10;99.90
59857;DHT22;45733;52.668;6.860;2023-02-28T07:01:27;3.10;99.90
59857;DHT22;45733;52.668;6.860;2023-02-28T07:03:54;3.20;99.90
59857;DHT22;45733;52.668;6.860;2023-02-28T07:06:23;3.10;99.90
59857;DHT22;45733;52.668;6.860;2023-02-28T07:08:50;3.20;99.90
59857;DHT22;45733;52.668;6.860;2023-02-28T07:11:17;3.10;99.90
59857;DHT22;45733;52.668;6.860;2023-02-28T07:13:43;3.10;99.90
59857;DHT22;45733;52.668;6.860;2023-02-28T07:16:11;3.10;99.90
59857;DHT22;45733;52.668;6.860;2023-02-28T07:18:37;3.00;99.90
59857;DHT22;45733;52.668;6.860;2023-02-28T07:21:04;3.10;99.90
59857;DHT22;45733;52.668;6.860;2023-02-28T07:23:30;3.00;99.90
59857;DHT22;45733;52.668;6.860;2023-02-28T07:25:56;3.00;99.90
59857;DHT22;45733;52.668;6.860;2023-02-28T07:28:22;3.00;99.90
59857;DHT22;45733;52.668;6.860;2023-02-28T07:30:48;2.90;99.90
59857;DHT22;45733;52.668;6.860;2023-02-28T07:33:14;2.80;99.90
59857;DHT22;45733;52.668;6.860;2023-02-28T07:35:40;2.80;99.90
59857;DHT22;45733;52.668;6.860;2023-02-28T07:38:06;2.90;99.90
59857;DHT22;45733;52.668;6.860;2023-02-28T07:40:35;3.10;99.90
59857;DHT22;45733;52.668;6.860;2023-02-28T07:43:02;3.30;99.90
59857;DHT22;45733;52.668;6.860;2023-02-28T07:45:29;3.30;99.90
59857;DHT22;45733;52.668;6.860;2023-02-28T07:47:55;3.40;99.90
59857;DHT22;45733;52.668;6.860;2023-02-28T07:50:21;3.40;99.90
59857;DHT22;45733;52.668;6.860;2023-02-28T07:52:47;3.60;99.90
59857;DHT22;45733;52.668;6.860;2023-02-28T07:55:13;3.70;99.90
59857;DHT22;45733;52.668;6.860;2023-02-28T07:57:40;3.80;99.90
59857;DHT22;45733;52.668;6.860;2023-02-28T08:00:07;3.90;99.90
59857;DHT22;45733;52.668;6.860;2023-02-28T08:02:35;4.10;99.90
59857;DHT22;45733;52.668;6.860;2023-02-28T08:05:01;4.10;99.90
59857;DHT22;45733;52.668;6.860;2023-02-28T08:07:28;4.30;99.90
59857;DHT22;45733;52.668;6.860;2023-02-28T08:09:53;4.40;99.90
59857;DHT22;45733;52.668;6.860;2023-02-28T08:12:19;4.40;99.90
59857;DHT22;45733;52.668;6.860;2023-02-28T08:14:45;4.40;99.90
59857;DHT22;45733;52.668;6.860;2023-02-28T08:17:11;4.40;99.90
59857;DHT22;45733;52.668;6.860;2023-02-28T08:19:37;4.30;99.90
59857;DHT22;45733;52.668;6.860;2023-02-28T08:22:02;4.50;99.90
59857;DHT22;45733;52.668;6.860;2023-02-28T08:24:28;4.30;99.90
59857;DHT22;45733;52.668;6.860;2023-02-28T08:26:55;4.50;99.90
59857;DHT22;45733;52.668;6.860;2023-02-28T08:29:20;4.70;99.90
59857;DHT22;45733;52.668;6.860;2023-02-28T08:31:46;4.90;99.90
59857;DHT22;45733;52.668;6.860;2023-02-28T08:34:14;5.10;99.90
59857;DHT22;45733;52.668;6.860;2023-02-28T08:36:40;5.50;99.90
59857;DHT22;45733;52.668;6.860;2023-02-28T08:39:06;5.80;99.90
59857;DHT22;45733;52.668;6.860;2023-02-28T08:41:32;6.00;99.90
59857;DHT22;45733;52.668;6.860;2023-02-28T08:43:58;6.20;99.90
59857;DHT22;45733;52.668;6.860;2023-02-28T08:46:25;6.30;99.90
59857;DHT22;45733;52.668;6.860;2023-02-28T08:48:56;6.40;99.90
59857;DHT22;45733;52.668;6.860;2023-02-28T08:51:25;6.40;99.90
59857;DHT22;45733;52.668;6.860;2023-02-28T08:53:57;6.40;99.90
59857;DHT22;45733;52.668;6.860;2023-02-28T08:56:23;6.50;99.90
59857;DHT22;45733;52.668;6.860;2023-02-28T08:58:50;6.50;99.90
59857;DHT22;45733;52.668;6.860;2023-02-28T09:01:21;6.30;99.90
59857;DHT22;45733;52.668;6.860;2023-02-28T09:03:48;6.80;99.90
59857;DHT22;45733;52.668;6.860;2023-02-28T09:06:16;6.90;99.90
59857;DHT22;45733;52.668;6.860;2023-02-28T09:08:42;7.00;99.90
59857;DHT22;45733;52.668;6.860;2023-02-28T09:11:09;7.10;99.90
59857;DHT22;45733;52.668;6.860;2023-02-28T09:13:35;6.80;99.90
59857;DHT22;45733;52.668;6.860;2023-02-28T09:16:04;7.00;99.90
59857;DHT22;45733;52.668;6.860;2023-02-28T09:18:30;6.90;99.90
59857;DHT22;45733;52.668;6.860;2023-02-28T09:20:56;7.00;99.90
59857;DHT22;45733;52.668;6.860;2023-02-28T09:23:23;7.20;99.90
59857;DHT22;45733;52.668;6.860;2023-02-28T09:25:54;7.40;99.90
59857;DHT22;45733;52.668;6.860;2023-02-28T09:28:20;7.70;99.90
59857;DHT22;45733;52.668;6.860;2023-02-28T09:30:49;7.80;99.90
59857;DHT22;45733;52.668;6.860;2023-02-28T09:33:16;7.60;99.90
59857;DHT22;45733;52.668;6.860;2023-02-28T09:35:42;7.70;99.90
59857;DHT22;45733;52.668;6.860;2023-02-28T09:38:09;7.90;99.90
59857;DHT22;45733;52.668;6.860;2023-02-28T09:40:46;8.00;99.90
59857;DHT22;45733;52.668;6.860;2023-02-28T09:43:15;7.80;99.90
59857;DHT22;45733;52.668;6.860;2023-02-28T09:48:41;7.60;99.90
59857;DHT22;45733;52.668;6.860;2023-02-28T09:54:03;7.20;99.90
59857;DHT22;45733;52.668;6.860;2023-02-28T09:56:33;7.60;99.90
59857;DHT22;45733;52.668;6.860;2023-02-28T10:04:58;7.90;99.90
59857;DHT22;45733;52.668;6.860;2023-02-28T10:10:07;7.80;99.90
59857;DHT22;45733;52.668;6.860;2023-02-28T10:12:41;8.20;99.90
59857;DHT22;45733;52.668;6.860;2023-02-28T10:15:14;7.70;99.90
59857;DHT22;45733;52.668;6.860;2023-02-28T10:17:43;7.40;99.90
59857;DHT22;45733;52.668;6.860;2023-02-28T10:20:17;7.90;99.90
59857;DHT22;45733;52.668;6.860;2023-02-28T10:25:28;8.10;99.90
59857;DHT22;45733;52.668;6.860;2023-02-28T10:28:01;7.10;99.90
59857;DHT22;45733;52.668;6.860;2023-02-28T10:30:30;7.90;99.90
59857;DHT22;45733;52.668;6.860;2023-02-28T10:32:56;8.00;99.90
59857;DHT22;45733;52.668;6.860;2023-02-28T10:35:24;7.90;99.90
59857;DHT22;45733;52.668;6.860;2023-02-28T10:37:56;7.90;99.90
59857;DHT22;45733;52.668;6.860;2023-02-28T10:43:02;8.30;99.90
59857;DHT22;45733;52.668;6.860;2023-02-28T10:45:30;8.30;99.90
59857;DHT22;45733;52.668;6.860;2023-02-28T10:58:49;7.80;99.90
59857;DHT22;45733;52.668;6.860;2023-02-28T11:07:22;8.30;99.90
59857;DHT22;45733;52.668;6.860;2023-02-28T11:09:55;8.20;99.90
59857;DHT22;45733;52.668;6.860;2023-02-28T11:15:31;7.60;99.90
59857;DHT22;45733;52.668;6.860;2023-02-28T11:17:37;8.40;99.90
59857;DHT22;45733;52.668;6.860;2023-02-28T11:20:05;8.50;99.90
59857;DHT22;45733;52.668;6.860;2023-02-28T11:22:36;8.10;99.90
59857;DHT22;45733;52.668;6.860;2023-02-28T11:28:28;8.80;99.90
59857;DHT22;45733;52.668;6.860;2023-02-28T11:31:17;8.70;99.90
59857;DHT22;45733;52.668;6.860;2023-02-28T11:33:52;7.60;99.90
59857;DHT22;45733;52.668;6.860;2023-02-28T11:36:29;8.10;99.90
59857;DHT22;45733;52.668;6.860;2023-02-28T11:38:59;8.50;99.90
59857;DHT22;45733;52.668;6.860;2023-02-28T11:46:45;8.20;99.90
59857;DHT22;45733;52.668;6.860;2023-02-28T11:51:52;7.50;99.90
59857;DHT22;45733;52.668;6.860;2023-02-28T11:57:33;8.00;99.90
59857;DHT22;45733;52.668;6.860;2023-02-28T12:02:40;7.60;99.90
59857;DHT22;45733;52.668;6.860;2023-02-28T12:05:24;7.50;99.90
59857;DHT22;45733;52.668;6.860;2023-02-28T12:08:26;8.20;99.90
59857;DHT22;45733;52.668;6.860;2023-02-28T12:14:18;7.50;99.90
59857;DHT22;45733;52.668;6.860;2023-02-28T12:19:36;7.60;99.90
59857;DHT22;45733;52.668;6.860;2023-02-28T12:27:38;7.80;99.90
59857;DHT22;45733;52.668;6.860;2023-02-28T12:30:33;7.90;99.90
59857;DHT22;45733;52.668;6.860;2023-02-28T12:33:09;7.80;99.90
59857;DHT22;45733;52.668;6.860;2023-02-28T12:35:56;8.60;99.90
59857;DHT22;45733;52.668;6.860;2023-02-28T12:38:25;8.10;99.10
59857;DHT22;45733;52.668;6.860;2023-02-28T12:41:13;7.60;98.30
59857;DHT22;45733;52.668;6.860;2023-02-28T12:43:44;7.70;99.30
59857;DHT22;45733;52.668;6.860;2023-02-28T12:46:24;8.10;99.90
59857;DHT22;45733;52.668;6.860;2023-02-28T12:48:56;7.90;98.90
59857;DHT22;45733;52.668;6.860;2023-02-28T12:51:24;7.90;99.90
59857;DHT22;45733;52.668;6.860;2023-02-28T12:59:57;8.60;99.90
59857;DHT22;45733;52.668;6.860;2023-02-28T13:06:05;8.30;99.90
59857;DHT22;45733;52.668;6.860;2023-02-28T13:09:09;7.80;98.00
59857;DHT22;45733;52.668;6.860;2023-02-28T13:11:31;8.10;99.90
59857;DHT22;45733;52.668;6.860;2023-02-28T13:14:03;8.40;99.90
59857;DHT22;45733;52.668;6.860;2023-02-28T13:16:55;8.40;97.50
59857;DHT22;45733;52.668;6.860;2023-02-28T13:19:23;8.40;98.80
59857;DHT22;45733;52.668;6.860;2023-02-28T13:21:51;8.00;99.70
59857;DHT22;45733;52.668;6.860;2023-02-28T13:29:32;8.40;99.80
59857;DHT22;45733;52.668;6.860;2023-02-28T13:34:35;8.60;99.90
59857;DHT22;45733;52.668;6.860;2023-02-28T13:45:19;9.20;99.90
59857;DHT22;45733;52.668;6.860;2023-02-28T13:47:52;8.90;98.60
59857;DHT22;45733;52.668;6.860;2023-02-28T13:50:38;8.70;98.60
59857;DHT22;45733;52.668;6.860;2023-02-28T13:53:30;8.90;98.30
59857;DHT22;45733;52.668;6.860;2023-02-28T14:07:33;8.30;97.90
59857;DHT22;45733;52.668;6.860;2023-02-28T14:10:20;8.20;97.20
59857;DHT22;45733;52.668;6.860;2023-02-28T14:15:46;8.40;97.20
59857;DHT22;45733;52.668;6.860;2023-02-28T14:20:48;8.60;97.70
59857;DHT22;45733;52.668;6.860;2023-02-28T14:26:03;8.40;96.90
59857;DHT22;45733;52.668;6.860;2023-02-28T14:31:07;8.80;98.40
59857;DHT22;45733;52.668;6.860;2023-02-28T14:36:35;8.80;97.90
59857;DHT22;45733;52.668;6.860;2023-02-28T14:39:15;8.80;99.40
59857;DHT22;45733;52.668;6.860;2023-02-28T14:41:43;8.70;99.90
59857;DHT22;45733;52.668;6.860;2023-02-28T14:46:45;8.10;96.30
59857;DHT22;45733;52.668;6.860;2023-02-28T14:51:42;8.50;97.70
59857;DHT22;45733;52.668;6.860;2023-02-28T14:54:17;8.60;99.70
59857;DHT22;45733;52.668;6.860;2023-02-28T14:56:49;8.80;99.90
59857;DHT22;45733;52.668;6.860;2023-02-28T14:59:27;8.50;96.80
59857;DHT22;45733;52.668;6.860;2023-02-28T15:02:20;8.30;95.40
59857;DHT22;45733;52.668;6.860;2023-02-28T15:04:54;8.20;95.50
59857;DHT22;45733;52.668;6.860;2023-02-28T15:07:20;8.10;95.60
59857;DHT22;45733;52.668;6.860;2023-02-28T15:10:18;7.90;94.90
59857;DHT22;45733;52.668;6.860;2023-02-28T15:12:55;7.80;95.90
59857;DHT22;45733;52.668;6.860;2023-02-28T15:15:23;7.70;94.80
59857;DHT22;45733;52.668;6.860;2023-02-28T15:17:54;7.80;97.80
59857;DHT22;45733;52.668;6.860;2023-02-28T15:20:21;7.80;95.20
59857;DHT22;45733;52.668;6.860;2023-02-28T15:22:50;7.90;95.20
59857;DHT22;45733;52.668;6.860;2023-02-28T15:25:19;7.80;95.40
59857;DHT22;45733;52.668;6.860;2023-02-28T15:27:49;7.90;97.00
59857;DHT22;45733;52.668;6.860;2023-02-28T15:30:24;7.80;94.70
59857;DHT22;45733;52.668;6.860;2023-02-28T15:33:19;7.80;96.20
59857;DHT22;45733;52.668;6.860;2023-02-28T15:35:45;7.70;95.50
59857;DHT22;45733;52.668;6.860;2023-02-28T15:38:26;7.60;96.00
59857;DHT22;45733;52.668;6.860;2023-02-28T15:40:54;7.60;96.30
59857;DHT22;45733;52.668;6.860;2023-02-28T15:43:31;7.50;97.00
59857;DHT22;45733;52.668;6.860;2023-02-28T15:48:29;7.30;95.30
59857;DHT22;45733;52.668;6.860;2023-02-28T15:51:01;7.40;98.80
59857;DHT22;45733;52.668;6.860;2023-02-28T15:54:00;7.30;96.60
59857;DHT22;45733;52.668;6.860;2023-02-28T15:56:29;7.40;98.80
59857;DHT22;45733;52.668;6.860;2023-02-28T15:58:57;7.40;97.70
59857;DHT22;45733;52.668;6.860;2023-02-28T16:01:25;7.40;97.30
59857;DHT22;45733;52.668;6.860;2023-02-28T16:03:55;7.30;99.00
59857;DHT22;45733;52.668;6.860;2023-02-28T16:06:42;7.20;98.30
59857;DHT22;45733;52.668;6.860;2023-02-28T16:09:14;7.20;98.50
59857;DHT22;45733;52.668;6.860;2023-02-28T16:11:48;7.10;98.00
59857;DHT22;45733;52.668;6.860;2023-02-28T16:14:17;7.10;98.50
59857;DHT22;45733;52.668;6.860;2023-02-28T16:16:46;7.00;99.40
59857;DHT22;45733;52.668;6.860;2023-02-28T16:19:12;7.00;99.50
59857;DHT22;45733;52.668;6.860;2023-02-28T16:21:38;6.80;99.90
59857;DHT22;45733;52.668;6.860;2023-02-28T16:24:03;6.80;99.10
59857;DHT22;45733;52.668;6.860;2023-02-28T16:26:29;6.80;99.10
59857;DHT22;45733;52.668;6.860;2023-02-28T16:28:55;6.80;98.50
59857;DHT22;45733;52.668;6.860;2023-02-28T16:31:21;6.70;99.90
59857;DHT22;45733;52.668;6.860;2023-02-28T16:33:47;6.70;99.00
59857;DHT22;45733;52.668;6.860;2023-02-28T16:36:15;6.70;99.30
59857;DHT22;45733;52.668;6.860;2023-02-28T16:38:41;6.50;99.90
59857;DHT22;45733;52.668;6.860;2023-02-28T16:41:07;6.60;99.80
59857;DHT22;45733;52.668;6.860;2023-02-28T16:43:38;6.50;99.90
59857;DHT22;45733;52.668;6.860;2023-02-28T16:46:04;6.30;99.90
59857;DHT22;45733;52.668;6.860;2023-02-28T16:48:30;6.30;99.90
59857;DHT22;45733;52.668;6.860;2023-02-28T16:50:56;6.20;99.90
59857;DHT22;45733;52.668;6.860;2023-02-28T16:53:22;6.00;99.90
59857;DHT22;45733;52.668;6.860;2023-02-28T16:55:48;5.90;99.90
59857;DHT22;45733;52.668;6.860;2023-02-28T16:58:16;5.80;99.90
59857;DHT22;45733;52.668;6.860;2023-02-28T17:00:43;5.70;99.90
59857;DHT22;45733;52.668;6.860;2023-02-28T17:03:26;5.70;99.90
59857;DHT22;45733;52.668;6.860;2023-02-28T17:05:52;5.50;99.90
59857;DHT22;45733;52.668;6.860;2023-02-28T17:08:18;5.30;99.90
59857;DHT22;45733;52.668;6.860;2023-02-28T17:10:44;5.20;99.90
59857;DHT22;45733;52.668;6.860;2023-02-28T17:13:10;5.20;99.90
59857;DHT22;45733;52.668;6.860;2023-02-28T17:15:36;5.00;99.90
59857;DHT22;45733;52.668;6.860;2023-02-28T17:18:03;5.00;99.90
59857;DHT22;45733;52.668;6.860;2023-02-28T17:20:29;5.00;99.90
59857;DHT22;45733;52.668;6.860;2023-02-28T17:22:55;4.80;99.90
59857;DHT22;45733;52.668;6.860;2023-02-28T17:25:23;4.70;99.90
59857;DHT22;45733;52.668;6.860;2023-02-28T17:27:48;4.50;99.90
59857;DHT22;45733;52.668;6.860;2023-02-28T17:30:16;4.40;99.90
59857;DHT22;45733;52.668;6.860;2023-02-28T17:32:42;4.40;99.90
59857;DHT22;45733;52.668;6.860;2023-02-28T17:35:09;4.30;99.90
59857;DHT22;45733;52.668;6.860;2023-02-28T17:37:34;4.20;99.90
59857;DHT22;45733;52.668;6.860;2023-02-28T17:40:00;4.20;99.90
59857;DHT22;45733;52.668;6.860;2023-02-28T17:42:26;4.10;99.90
59857;DHT22;45733;52.668;6.860;2023-02-28T17:44:52;4.10;99.90
59857;DHT22;45733;52.668;6.860;2023-02-28T17:47:17;3.90;99.90
59857;DHT22;45733;52.668;6.860;2023-02-28T17:49:43;3.70;99.90
59857;DHT22;45733;52.668;6.860;2023-02-28T17:52:09;3.70;99.90
59857;DHT22;45733;52.668;6.860;2023-02-28T17:54:35;3.80;99.90
59857;DHT22;45733;52.668;6.860;2023-02-28T17:57:01;3.80;99.90
59857;DHT22;45733;52.668;6.860;2023-02-28T17:59:26;3.80;99.90
59857;DHT22;45733;52.668;6.860;2023-02-28T18:01:59;3.80;99.90
59857;DHT22;45733;52.668;6.860;2023-02-28T18:04:25;3.70;99.90
59857;DHT22;45733;52.668;6.860;2023-02-28T18:06:53;3.80;99.90
59857;DHT22;45733;52.668;6.860;2023-02-28T18:09:21;3.70;99.90
59857;DHT22;45733;52.668;6.860;2023-02-28T18:11:48;3.80;99.90
59857;DHT22;45733;52.668;6.860;2023-02-28T18:14:18;3.80;99.90
59857;DHT22;45733;52.668;6.860;2023-02-28T18:16:45;3.60;99.90
59857;DHT22;45733;52.668;6.860;2023-02-28T18:19:11;3.50;99.90
59857;DHT22;45733;52.668;6.860;2023-02-28T18:21:50;3.40;99.90
59857;DHT22;45733;52.668;6.860;2023-02-28T18:24:17;3.40;99.90
59857;DHT22;45733;52.668;6.860;2023-02-28T18:26:43;3.40;99.90
59857;DHT22;45733;52.668;6.860;2023-02-28T18:29:16;3.30;99.90
59857;DHT22;45733;52.668;6.860;2023-02-28T18:31:42;3.30;99.90
59857;DHT22;45733;52.668;6.860;2023-02-28T18:34:08;3.20;99.90
59857;DHT22;45733;52.668;6.860;2023-02-28T18:36:34;3.20;99.90
59857;DHT22;45733;52.668;6.860;2023-02-28T18:38:59;3.10;99.90
59857;DHT22;45733;52.668;6.860;2023-02-28T18:41:25;3.00;99.90